Historical Weather Data

Kanab, UT VWS

Date ET
(Inches)
Rain
(Inches)
Temp °F
Humidity
Avg
Wind MPH
Avg
Solar Wm2
Avg
High Ave Low
11/01/2018 12:00 am 0.082 0.00 65.0 48.6 35.0 45 2.3 170
11/02/2018 12:00 am 0.084 0.00 67.0 51.1 36.0 53 2.5 166
11/03/2018 12:00 am 0.080 0.00 63.0 49.5 38.0 42 2.3 174
11/04/2018 12:00 am 0.096 0.00 61.0 49.1 38.0 40 3.1 173
11/05/2018 12:00 am 0.109 0.00 63.0 49.9 40.0 43 4.0 178
11/06/2018 12:00 am 0.104 0.00 63.0 48.6 38.0 36 3.3 178
11/07/2018 12:00 am 0.097 0.00 60.0 45.7 35.0 31 3.1 178
11/08/2018 12:00 am 0.100 0.00 52.0 39.7 30.0 34 5.5 177
11/09/2018 12:00 am 0.087 0.00 53.0 37.7 26.0 36 4.0 175
11/10/2018 12:00 am 0.085 0.00 56.0 39.5 27.0 34 3.3 173
11/11/2018 12:00 am 0.087 0.00 49.0 36.3 27.0 35 5.4 171
11/12/2018 12:00 am 0.073 0.00 45.0 32.6 24.0 37 3.9 170
11/13/2018 12:00 am 0.073 0.00 50.0 34.7 23.0 32 3.0 166
11/14/2018 12:00 am 0.077 0.00 53.0 38.3 28.0 32 2.7 165
11/15/2018 12:00 am 0.082 0.00 58.0 41.4 30.0 36 3.0 162
11/16/2018 12:00 am 0.080 0.00 62.0 43.5 30.0 40 2.3 160
11/17/2018 12:00 am 0.084 0.00 59.0 42.5 31.0 40 3.3 157
11/18/2018 12:00 am 0.076 0.00 53.0 37.4 25.0 46 4.2 157
11/19/2018 12:00 am 0.072 0.00 55.0 36.4 24.0 39 2.8 155
11/20/2018 12:00 am 0.084 0.00 53.0 36.9 24.0 35 4.6 153
11/21/2018 12:00 am 0.083 0.00 56.0 41.4 32.0 29 3.6 151
11/22/2018 12:00 am 0.042 0.05 48.0 39.3 33.0 59 3.6 88
11/23/2018 12:00 am 0.070 0.00 53.0 40.6 30.3 61 4.2 139
11/24/2018 12:00 am 0.081 0.00 54.0 40.9 31.0 53 5.6 144
11/25/2018 12:00 am 0.069 0.00 45.0 34.3 25.0 41 4.5 146
11/26/2018 12:00 am 0.072 0.00 51.0 36.2 26.0 38 3.8 144
11/27/2018 12:00 am 0.064 0.00 53.0 38.8 28.0 31 2.1 143
11/28/2018 12:00 am 0.081 0.00 56.0 42.3 30.0 34 3.8 135
11/29/2018 12:00 am 0.049 0.38 48.0 40.0 35.0 59 4.8 55
11/30/2018 12:00 am 0.037 0.08 44.0 37.9 34.0 79 5.3 65